createdAt,value
2023-03-06T00:01:54.073Z,52.43
2023-03-06T00:04:20.772Z,52.57
2023-03-06T00:06:47.392Z,52.69
2023-03-06T00:09:14.010Z,52.70
2023-03-06T00:11:40.619Z,53.04
2023-03-06T00:14:07.257Z,52.38
2023-03-06T00:16:34.079Z,51.95
2023-03-06T00:19:00.695Z,51.99
2023-03-06T00:21:27.356Z,52.10
2023-03-06T00:23:53.991Z,51.98
2023-03-06T00:26:20.625Z,52.50
2023-03-06T00:28:47.222Z,52.72
2023-03-06T00:31:13.932Z,52.26
2023-03-06T00:33:40.642Z,52.41
2023-03-06T00:36:07.572Z,52.41
2023-03-06T00:38:35.661Z,52.41
2023-03-06T00:41:10.642Z,52.17
2023-03-06T00:43:37.499Z,52.53
2023-03-06T00:46:05.716Z,52.37
2023-03-06T00:48:33.346Z,52.23
2023-03-06T00:51:00.442Z,51.93
2023-03-06T00:53:27.149Z,52.15
2023-03-06T00:55:53.884Z,52.25
2023-03-06T00:58:20.556Z,52.54
2023-03-06T01:00:47.223Z,52.73
2023-03-06T01:03:13.882Z,52.27
2023-03-06T01:05:40.699Z,52.52
2023-03-06T01:08:08.825Z,52.34
2023-03-06T01:10:38.961Z,52.87
2023-03-06T01:13:06.051Z,52.79
2023-03-06T01:15:32.768Z,52.53
2023-03-06T01:17:59.435Z,52.60
2023-03-06T01:20:26.177Z,52.46
2023-03-06T01:22:54.533Z,52.59
2023-03-06T01:25:21.464Z,52.74
2023-03-06T01:27:48.124Z,52.21
2023-03-06T01:30:14.919Z,52.41
2023-03-06T01:32:41.624Z,52.13
2023-03-06T01:35:09.023Z,52.54
2023-03-06T01:37:36.776Z,53.17
2023-03-06T01:40:04.397Z,53.06
2023-03-06T01:42:32.190Z,52.49
2023-03-06T01:45:04.385Z,52.32
2023-03-06T01:47:31.198Z,52.23
2023-03-06T01:49:59.108Z,52.76
2023-03-06T01:52:30.356Z,52.58
2023-03-06T01:55:02.938Z,52.88
2023-03-06T01:57:40.975Z,53.00
2023-03-06T02:00:12.383Z,53.00
2023-03-06T02:02:40.377Z,53.13
2023-03-06T02:05:07.778Z,52.71
2023-03-06T02:07:36.286Z,53.20
2023-03-06T02:10:02.944Z,53.89
2023-03-06T02:12:29.666Z,53.15
2023-03-06T02:14:56.474Z,52.76
2023-03-06T02:17:24.273Z,52.98
2023-03-06T02:20:12.092Z,53.12
2023-03-06T02:23:05.061Z,53.51
2023-03-06T02:25:46.080Z,53.77
2023-03-06T02:28:16.147Z,53.02
2023-03-06T02:30:44.950Z,52.98
2023-03-06T02:33:14.299Z,52.60
2023-03-06T02:35:46.658Z,52.93
2023-03-06T02:38:19.794Z,52.97
2023-03-06T02:40:49.819Z,52.62
2023-03-06T02:43:21.215Z,52.61
2023-03-06T02:45:50.531Z,52.78
2023-03-06T02:48:18.779Z,52.89
2023-03-06T02:50:46.554Z,53.00
2023-03-06T02:53:15.053Z,53.38
2023-03-06T02:55:42.455Z,53.19
2023-03-06T02:58:09.310Z,53.02
2023-03-06T03:00:36.549Z,53.37
2023-03-06T03:03:04.378Z,53.50
2023-03-06T03:05:31.452Z,54.28
2023-03-06T03:07:58.449Z,54.25
2023-03-06T03:10:25.311Z,53.71
2023-03-06T03:12:51.971Z,53.58
2023-03-06T03:15:18.695Z,53.75
2023-03-06T03:17:45.304Z,53.57
2023-03-06T03:20:15.082Z,53.38
2023-03-06T03:22:41.796Z,53.97
2023-03-06T03:25:09.290Z,54.34
2023-03-06T03:27:35.891Z,53.67
2023-03-06T03:30:02.563Z,53.09
2023-03-06T03:32:29.608Z,53.39
2023-03-06T03:34:56.517Z,53.25
2023-03-06T03:37:23.269Z,53.71
2023-03-06T03:39:49.941Z,53.14
2023-03-06T03:42:16.603Z,53.22
2023-03-06T03:44:43.266Z,53.42
2023-03-06T03:47:09.904Z,53.15
2023-03-06T03:49:36.542Z,53.22
2023-03-06T03:52:03.324Z,53.57
2023-03-06T03:54:29.968Z,54.13
2023-03-06T03:56:56.630Z,53.72
2023-03-06T03:59:23.306Z,54.34
2023-03-06T04:01:49.949Z,53.86
2023-03-06T04:04:16.634Z,53.10
2023-03-06T04:06:43.343Z,53.15
2023-03-06T04:09:10.162Z,54.15
2023-03-06T04:11:36.946Z,54.23
2023-03-06T04:14:03.590Z,54.65
2023-03-06T04:16:30.396Z,54.33
2023-03-06T04:18:57.176Z,53.76
2023-03-06T04:21:23.769Z,53.57
2023-03-06T04:23:50.457Z,53.48
2023-03-06T04:26:17.050Z,54.11
2023-03-06T04:28:43.720Z,53.92
2023-03-06T04:31:12.426Z,53.66
2023-03-06T04:33:39.639Z,53.73
2023-03-06T04:36:06.521Z,53.79
2023-03-06T04:38:33.290Z,53.66
2023-03-06T04:40:59.941Z,54.38
2023-03-06T04:43:26.787Z,54.24
2023-03-06T04:45:53.464Z,54.35
2023-03-06T04:48:20.117Z,53.94
2023-03-06T04:50:46.982Z,53.89
2023-03-06T04:53:14.695Z,54.13
2023-03-06T04:55:41.362Z,54.76
2023-03-06T04:58:07.991Z,54.27
2023-03-06T05:00:34.812Z,54.51
2023-03-06T05:03:02.037Z,54.56
2023-03-06T05:05:29.375Z,54.49
2023-03-06T05:07:56.500Z,54.21
2023-03-06T05:10:23.915Z,54.46
2023-03-06T05:12:50.578Z,54.23
2023-03-06T05:15:17.868Z,54.08
2023-03-06T05:17:44.767Z,53.81
2023-03-06T05:20:13.190Z,54.24
2023-03-06T05:22:40.357Z,54.15
2023-03-06T05:25:07.567Z,54.36
2023-03-06T05:27:34.557Z,54.09
2023-03-06T05:30:01.372Z,54.36
2023-03-06T05:32:28.478Z,54.00
2023-03-06T05:34:55.698Z,54.50
2023-03-06T05:37:23.192Z,54.29
2023-03-06T05:39:51.042Z,54.70
2023-03-06T05:42:18.486Z,54.51
2023-03-06T05:44:45.396Z,54.53
2023-03-06T05:47:12.636Z,54.41
2023-03-06T05:49:39.634Z,54.64
2023-03-06T05:52:07.333Z,54.65
2023-03-06T05:54:36.740Z,54.57
2023-03-06T05:57:05.345Z,55.60
2023-03-06T05:59:33.170Z,55.70
2023-03-06T06:02:00.766Z,55.43
2023-03-06T06:04:27.865Z,55.19
2023-03-06T06:06:58.029Z,54.99
2023-03-06T06:09:24.936Z,55.77
2023-03-06T06:11:56.618Z,56.08
2023-03-06T06:14:23.626Z,55.83
2023-03-06T06:16:50.333Z,55.98
2023-03-06T06:19:20.379Z,55.54
2023-03-06T06:21:48.969Z,55.81
2023-03-06T06:24:17.135Z,56.00
2023-03-06T06:26:44.002Z,55.36
2023-03-06T06:29:11.940Z,55.40
2023-03-06T06:31:39.450Z,55.76
2023-03-06T06:34:07.409Z,55.74
2023-03-06T06:36:34.636Z,56.07
2023-03-06T06:39:01.608Z,55.98
2023-03-06T06:41:50.735Z,55.87
2023-03-06T06:44:16.272Z,55.48
2023-03-06T06:49:32.219Z,56.22
2023-03-06T06:51:58.934Z,56.21
2023-03-06T06:54:26.386Z,55.94
2023-03-06T06:56:53.043Z,55.92
2023-03-06T06:59:20.002Z,55.75
2023-03-06T07:01:46.697Z,55.85
2023-03-06T07:04:14.100Z,56.44
2023-03-06T07:06:41.838Z,56.36
2023-03-06T07:09:08.513Z,56.41
2023-03-06T07:11:35.171Z,56.60
2023-03-06T07:14:02.112Z,56.11
2023-03-06T07:16:28.715Z,56.13
2023-03-06T07:18:55.368Z,56.76
2023-03-06T07:21:22.210Z,56.98
2023-03-06T07:23:48.854Z,57.36
2023-03-06T07:26:15.587Z,58.20
2023-03-06T07:28:51.962Z,57.59
2023-03-06T07:31:22.253Z,57.84
2023-03-06T07:33:50.733Z,58.35
2023-03-06T07:36:17.552Z,57.60
2023-03-06T07:38:44.177Z,57.77
2023-03-06T07:41:13.677Z,57.55
2023-03-06T07:43:41.317Z,58.41
2023-03-06T07:46:08.271Z,58.34
2023-03-06T07:48:36.276Z,58.34
2023-03-06T07:51:05.984Z,57.84
2023-03-06T07:53:33.303Z,57.57
2023-03-06T07:56:00.468Z,57.36
2023-03-06T07:58:27.203Z,57.21
2023-03-06T08:00:53.851Z,56.33
2023-03-06T08:03:20.474Z,56.35
2023-03-06T08:05:47.132Z,57.43
2023-03-06T08:08:13.800Z,57.29
2023-03-06T08:10:40.555Z,56.91
2023-03-06T08:13:07.168Z,56.66
2023-03-06T08:15:33.808Z,56.38
2023-03-06T08:18:00.450Z,55.82
2023-03-06T08:20:27.140Z,55.77
2023-03-06T08:22:53.726Z,55.80
2023-03-06T08:25:20.348Z,56.67
2023-03-06T08:27:47.499Z,56.36
2023-03-06T08:30:14.818Z,56.29
2023-03-06T08:32:41.583Z,56.44
2023-03-06T08:35:08.687Z,56.87
2023-03-06T08:37:35.342Z,56.68
2023-03-06T08:40:04.657Z,56.47
2023-03-06T08:42:32.591Z,56.67
2023-03-06T08:44:59.259Z,56.99
2023-03-06T08:47:26.034Z,57.00
2023-03-06T08:49:52.687Z,57.71
2023-03-06T08:52:19.941Z,56.94
2023-03-06T08:54:46.682Z,56.50
2023-03-06T08:57:13.370Z,56.23
2023-03-06T08:59:40.061Z,57.85
2023-03-06T09:02:07.811Z,58.41
2023-03-06T09:04:34.779Z,57.89
2023-03-06T09:07:01.874Z,57.22
2023-03-06T09:09:28.591Z,57.31
2023-03-06T09:11:55.214Z,57.03
2023-03-06T09:14:21.975Z,58.04
2023-03-06T09:16:48.623Z,58.12
2023-03-06T09:19:15.248Z,57.70
2023-03-06T09:21:41.919Z,58.48
2023-03-06T09:24:08.936Z,58.43
2023-03-06T09:26:45.453Z,58.07
2023-03-06T09:29:13.167Z,58.19
2023-03-06T09:31:39.805Z,58.23
2023-03-06T09:34:06.456Z,57.53
2023-03-06T09:36:42.728Z,57.18
2023-03-06T09:39:16.132Z,58.84
2023-03-06T09:41:43.143Z,58.21
2023-03-06T09:44:21.263Z,57.59
2023-03-06T09:47:22.267Z,57.09
2023-03-06T09:50:01.239Z,57.08
2023-03-06T09:52:33.607Z,56.69
2023-03-06T09:55:14.903Z,56.49
2023-03-06T09:58:07.213Z,56.66
2023-03-06T10:00:38.724Z,57.86
2023-03-06T10:03:22.250Z,58.20
2023-03-06T10:06:18.465Z,57.60
2023-03-06T10:09:10.239Z,57.87
2023-03-06T10:11:43.539Z,57.75
2023-03-06T10:14:22.821Z,57.18
2023-03-06T10:16:49.734Z,56.88
2023-03-06T10:19:21.411Z,56.69
2023-03-06T10:22:21.833Z,56.42
2023-03-06T10:24:53.347Z,56.54
2023-03-06T10:27:36.568Z,55.86
2023-03-06T10:30:23.194Z,55.54
2023-03-06T10:33:22.872Z,55.63
2023-03-06T10:35:52.262Z,55.10
2023-03-06T10:38:26.516Z,55.02
2023-03-06T10:41:08.874Z,54.92
2023-03-06T10:43:36.773Z,56.32
2023-03-06T10:46:05.289Z,56.01
2023-03-06T10:48:36.163Z,55.79
2023-03-06T10:51:23.491Z,56.21
2023-03-06T10:53:59.658Z,55.82
2023-03-06T10:56:38.808Z,55.44
2023-03-06T10:59:12.860Z,56.18
2023-03-06T11:01:41.275Z,54.62
2023-03-06T11:04:27.485Z,55.13
2023-03-06T11:07:16.076Z,54.72
2023-03-06T11:09:47.732Z,56.16
2023-03-06T11:12:34.074Z,55.77
2023-03-06T11:15:17.653Z,55.94
2023-03-06T11:18:08.939Z,56.97
2023-03-06T11:20:51.385Z,57.41
2023-03-06T11:23:29.173Z,54.71
2023-03-06T11:26:02.433Z,51.83
2023-03-06T11:28:30.246Z,50.49
2023-03-06T11:31:03.850Z,49.89
2023-03-06T11:33:53.718Z,48.64
2023-03-06T11:36:30.456Z,48.97
2023-03-06T11:38:57.123Z,49.15
2023-03-06T11:41:59.115Z,48.06
2023-03-06T11:45:07.234Z,47.81
2023-03-06T11:47:55.280Z,49.26
2023-03-06T11:50:37.708Z,48.57
2023-03-06T11:53:10.425Z,49.32
2023-03-06T11:56:22.902Z,49.38
2023-03-06T11:59:12.011Z,49.69
2023-03-06T12:01:58.085Z,49.79
2023-03-06T12:04:51.120Z,49.59
2023-03-06T12:07:33.765Z,49.77
2023-03-06T12:10:33.151Z,49.75
2023-03-06T12:13:14.895Z,50.01
2023-03-06T12:15:56.775Z,50.68
2023-03-06T12:18:32.371Z,50.90
2023-03-06T12:21:07.844Z,50.44
2023-03-06T12:24:05.204Z,50.65
2023-03-06T12:27:00.137Z,51.41
2023-03-06T12:29:41.649Z,52.45
2023-03-06T12:32:22.442Z,53.84
2023-03-06T12:35:06.097Z,53.81
2023-03-06T12:37:45.387Z,54.64
2023-03-06T12:40:44.302Z,55.08
2023-03-06T12:43:39.886Z,53.96
2023-03-06T12:46:21.570Z,54.57
2023-03-06T12:48:54.845Z,55.18
2023-03-06T12:51:21.639Z,55.20
2023-03-06T12:53:50.385Z,54.43
2023-03-06T12:56:19.086Z,54.22
2023-03-06T12:58:53.922Z,54.08
2023-03-06T13:01:47.744Z,55.19
2023-03-06T13:04:35.775Z,55.65
2023-03-06T13:07:11.389Z,56.27
2023-03-06T13:10:03.724Z,56.40
2023-03-06T13:13:08.632Z,55.40
2023-03-06T13:15:45.940Z,56.42
2023-03-06T13:18:21.581Z,55.40
2023-03-06T13:20:52.790Z,55.07
2023-03-06T13:23:38.366Z,54.60
2023-03-06T13:26:25.418Z,55.07
2023-03-06T13:28:54.112Z,53.47
2023-03-06T13:31:33.890Z,52.45
2023-03-06T13:34:05.836Z,51.90
2023-03-06T13:36:39.579Z,52.05
2023-03-06T13:39:12.929Z,53.25
2023-03-06T13:41:43.879Z,54.75
2023-03-06T13:44:25.567Z,54.27
2023-03-06T13:47:05.753Z,53.56
2023-03-06T13:49:33.978Z,53.82
2023-03-06T13:52:21.466Z,54.22
2023-03-06T13:55:06.307Z,54.15
2023-03-06T13:57:54.074Z,53.68
2023-03-06T14:00:39.395Z,53.76
2023-03-06T14:03:09.121Z,52.93
2023-03-06T14:05:47.344Z,53.45
2023-03-06T14:08:17.459Z,55.00
2023-03-06T14:10:47.266Z,53.96
2023-03-06T14:13:41.827Z,53.56
2023-03-06T14:16:21.361Z,52.97
2023-03-06T14:18:50.751Z,52.10
2023-03-06T14:21:27.744Z,51.50
2023-03-06T14:24:02.957Z,52.17
2023-03-06T14:26:44.882Z,52.88
2023-03-06T14:29:21.278Z,52.77
2023-03-06T14:31:51.100Z,51.69
2023-03-06T14:34:45.959Z,52.36
2023-03-06T14:37:22.797Z,51.68
2023-03-06T14:39:49.601Z,52.76
2023-03-06T14:42:26.211Z,51.89
2023-03-06T14:45:16.733Z,53.15
2023-03-06T14:47:49.241Z,52.34
2023-03-06T14:50:20.232Z,52.00
2023-03-06T14:52:47.616Z,51.84
2023-03-06T14:55:19.834Z,51.00
2023-03-06T14:57:53.590Z,51.43
2023-03-06T15:00:24.581Z,52.00
2023-03-06T15:02:54.358Z,52.42
2023-03-06T15:05:29.977Z,52.21
2023-03-06T15:08:03.449Z,51.98
2023-03-06T15:10:32.729Z,51.58
2023-03-06T15:13:21.583Z,52.02
2023-03-06T15:16:18.701Z,51.34
2023-03-06T15:18:59.402Z,51.37
2023-03-06T15:21:27.497Z,50.88
2023-03-06T15:23:56.819Z,51.74
2023-03-06T15:26:29.450Z,51.85
2023-03-06T15:29:08.926Z,51.45
2023-03-06T15:32:17.294Z,51.96
2023-03-06T15:34:43.902Z,52.28
2023-03-06T15:37:28.113Z,52.37
2023-03-06T15:40:09.428Z,52.37
2023-03-06T15:42:36.661Z,52.67
2023-03-06T15:45:16.007Z,52.89
2023-03-06T15:47:44.814Z,52.87
2023-03-06T15:50:26.606Z,52.67
2023-03-06T15:52:53.528Z,52.94
2023-03-06T15:55:23.880Z,52.61
2023-03-06T15:57:54.413Z,53.50
2023-03-06T16:00:29.694Z,53.46
2023-03-06T16:02:57.394Z,53.66
2023-03-06T16:05:25.447Z,53.38
2023-03-06T16:07:52.098Z,53.35
2023-03-06T16:10:21.881Z,53.44
2023-03-06T16:12:56.502Z,53.46
2023-03-06T16:15:28.991Z,53.87
2023-03-06T16:17:59.856Z,53.50
2023-03-06T16:20:28.588Z,53.07
2023-03-06T16:22:55.868Z,53.26
2023-03-06T16:25:24.817Z,53.74
2023-03-06T16:27:59.963Z,53.15
2023-03-06T16:30:29.709Z,53.37
2023-03-06T16:32:57.121Z,53.09
2023-03-06T16:35:24.181Z,52.87
2023-03-06T16:37:51.772Z,52.87
2023-03-06T16:40:30.899Z,52.82
2023-03-06T16:42:57.480Z,52.74
2023-03-06T16:45:24.698Z,52.48
2023-03-06T16:47:51.918Z,52.12
2023-03-06T16:50:26.346Z,52.28
2023-03-06T16:52:54.890Z,52.30
2023-03-06T16:55:22.482Z,52.33
2023-03-06T16:57:49.253Z,52.64
2023-03-06T17:00:18.712Z,52.03
2023-03-06T17:02:48.763Z,52.25
2023-03-06T17:05:15.623Z,51.89
2023-03-06T17:07:42.422Z,52.07
2023-03-06T17:10:13.229Z,52.44
2023-03-06T17:12:39.898Z,52.21
2023-03-06T17:15:07.521Z,51.74
2023-03-06T17:17:34.384Z,51.76
2023-03-06T17:20:01.524Z,51.61
2023-03-06T17:22:28.467Z,51.45
2023-03-06T17:24:55.083Z,51.28
2023-03-06T17:27:22.956Z,51.36
2023-03-06T17:29:49.672Z,50.95
2023-03-06T17:32:16.321Z,51.00
2023-03-06T17:34:43.049Z,51.00
2023-03-06T17:37:09.723Z,51.10
2023-03-06T17:39:38.911Z,51.22
2023-03-06T17:42:06.648Z,50.89
2023-03-06T17:44:34.526Z,50.98
2023-03-06T17:47:01.890Z,51.23
2023-03-06T17:49:28.604Z,52.15
2023-03-06T17:51:58.039Z,51.63
2023-03-06T17:54:29.297Z,51.29
2023-03-06T17:57:04.539Z,50.35
2023-03-06T17:59:34.222Z,51.76
2023-03-06T18:02:01.307Z,51.18
2023-03-06T18:04:28.143Z,51.53
2023-03-06T18:06:54.922Z,51.52
2023-03-06T18:09:21.603Z,51.64
2023-03-06T18:11:48.203Z,51.92
2023-03-06T18:14:14.911Z,51.99
2023-03-06T18:16:41.621Z,52.08
2023-03-06T18:19:11.112Z,52.95
2023-03-06T18:21:39.657Z,52.26
2023-03-06T18:24:07.048Z,52.07
2023-03-06T18:26:33.794Z,52.36
2023-03-06T18:29:04.372Z,52.43
2023-03-06T18:31:39.765Z,52.45
2023-03-06T18:34:12.230Z,52.63
2023-03-06T18:36:39.736Z,53.20
2023-03-06T18:39:09.632Z,52.53
2023-03-06T18:41:37.134Z,52.39
2023-03-06T18:44:04.450Z,52.24
2023-03-06T18:46:36.897Z,53.91
2023-03-06T18:49:04.298Z,54.25
2023-03-06T18:51:31.285Z,55.12
2023-03-06T18:53:59.037Z,55.29
2023-03-06T18:56:25.859Z,56.02
2023-03-06T18:58:52.858Z,56.49
2023-03-06T19:01:19.620Z,56.75
2023-03-06T19:03:46.855Z,56.48
2023-03-06T19:06:15.372Z,56.65
2023-03-06T19:08:42.206Z,55.42
2023-03-06T19:11:17.050Z,55.58
2023-03-06T19:13:44.584Z,56.25
2023-03-06T19:16:28.328Z,56.47
2023-03-06T19:18:56.180Z,56.00
2023-03-06T19:21:24.854Z,56.03
2023-03-06T19:23:51.789Z,55.62
2023-03-06T19:26:18.998Z,54.65
2023-03-06T19:28:46.537Z,54.21
2023-03-06T19:31:24.205Z,55.08
2023-03-06T19:33:53.140Z,55.53
2023-03-06T19:36:23.652Z,55.70
2023-03-06T19:38:54.955Z,55.36
2023-03-06T19:41:21.905Z,55.54
2023-03-06T19:43:54.799Z,56.07
2023-03-06T19:46:22.895Z,55.62
2023-03-06T19:48:57.661Z,54.97
2023-03-06T19:51:25.572Z,54.55
2023-03-06T19:53:52.839Z,55.08
2023-03-06T19:56:22.678Z,54.51
2023-03-06T19:58:49.288Z,54.30
2023-03-06T20:01:20.783Z,54.18
2023-03-06T20:03:47.590Z,54.35
2023-03-06T20:06:17.474Z,55.03
2023-03-06T20:08:45.250Z,53.73
2023-03-06T20:11:19.533Z,53.69
2023-03-06T20:13:47.946Z,53.14
2023-03-06T20:16:15.417Z,54.18
2023-03-06T20:18:42.412Z,53.28
2023-03-06T20:21:09.114Z,53.30
2023-03-06T20:23:35.846Z,53.93
2023-03-06T20:26:14.963Z,54.10
2023-03-06T20:28:42.970Z,54.07
2023-03-06T20:31:26.466Z,54.83
2023-03-06T20:33:54.263Z,56.21
2023-03-06T20:36:23.849Z,56.25
2023-03-06T20:38:50.845Z,57.60
2023-03-06T20:41:23.018Z,56.62
2023-03-06T20:43:50.006Z,55.62
2023-03-06T20:46:17.763Z,54.62
2023-03-06T20:48:48.539Z,54.39
2023-03-06T20:51:18.853Z,54.34
2023-03-06T20:53:49.698Z,53.40
2023-03-06T20:56:18.587Z,53.89
2023-03-06T20:58:45.405Z,53.63
2023-03-06T21:01:41.211Z,53.22
2023-03-06T21:04:13.969Z,52.91
2023-03-06T21:06:43.987Z,52.44
2023-03-06T21:09:11.102Z,52.25
2023-03-06T21:11:37.974Z,52.26
2023-03-06T21:14:04.637Z,52.01
2023-03-06T21:16:31.342Z,51.91
2023-03-06T21:18:59.863Z,51.68
2023-03-06T21:21:29.748Z,52.02
2023-03-06T21:23:56.596Z,51.88
2023-03-06T21:26:26.013Z,52.01
2023-03-06T21:28:53.306Z,51.66
2023-03-06T21:31:21.672Z,51.92
2023-03-06T21:33:49.852Z,52.09
2023-03-06T21:36:18.745Z,52.24
2023-03-06T21:38:45.597Z,52.27
2023-03-06T21:41:17.799Z,52.43
2023-03-06T21:43:44.686Z,52.70
2023-03-06T21:46:11.946Z,52.69
2023-03-06T21:48:38.648Z,54.12
2023-03-06T21:51:13.738Z,54.42
2023-03-06T21:53:44.265Z,53.66
2023-03-06T21:56:12.170Z,53.71
2023-03-06T21:58:39.281Z,53.67
2023-03-06T22:01:21.808Z,53.84
2023-03-06T22:03:48.691Z,53.92
2023-03-06T22:06:18.555Z,54.48
2023-03-06T22:08:46.361Z,54.54
2023-03-06T22:11:16.067Z,54.80
2023-03-06T22:13:43.347Z,56.18
2023-03-06T22:16:10.428Z,55.84
2023-03-06T22:18:37.735Z,55.45
2023-03-06T22:21:09.327Z,56.80
2023-03-06T22:23:36.305Z,55.85
2023-03-06T22:26:08.314Z,55.41
2023-03-06T22:28:35.344Z,57.43
2023-03-06T22:31:09.847Z,57.02
2023-03-06T22:33:36.887Z,56.97
2023-03-06T22:36:07.663Z,57.49
2023-03-06T22:38:39.993Z,57.82
2023-03-06T22:41:07.988Z,58.81
2023-03-06T22:43:35.559Z,59.34
2023-03-06T22:46:11.069Z,59.34
2023-03-06T22:48:38.136Z,59.49
2023-03-06T22:51:10.801Z,59.73
2023-03-06T22:53:38.010Z,60.18
2023-03-06T22:56:06.893Z,60.38
2023-03-06T22:58:37.146Z,61.23
2023-03-06T23:01:09.864Z,61.42
2023-03-06T23:03:38.515Z,61.33
2023-03-06T23:06:12.798Z,60.72
2023-03-06T23:08:39.434Z,61.08
2023-03-06T23:11:10.957Z,61.79
2023-03-06T23:13:38.518Z,62.98
2023-03-06T23:16:06.930Z,63.58
2023-03-06T23:18:35.315Z,63.88
2023-03-06T23:21:09.496Z,64.08
2023-03-06T23:23:40.168Z,63.95
2023-03-06T23:26:08.530Z,63.83
2023-03-06T23:28:35.224Z,63.48
2023-03-06T23:31:12.975Z,63.90
2023-03-06T23:33:39.966Z,64.17
2023-03-06T23:36:09.411Z,64.18
2023-03-06T23:38:36.088Z,64.23
2023-03-06T23:41:11.530Z,63.25
2023-03-06T23:43:38.458Z,61.39
2023-03-06T23:46:07.070Z,61.78
2023-03-06T23:48:35.911Z,61.31
2023-03-06T23:51:24.098Z,61.08
2023-03-06T23:53:56.610Z,60.88
2023-03-06T23:56:24.733Z,60.38
2023-03-06T23:58:51.596Z,61.29
